createdAt,value
2022-12-18T00:01:20.191Z,20.15
2022-12-18T00:06:40.827Z,22.80
2022-12-18T00:17:36.462Z,20.37
2022-12-18T00:22:57.455Z,22.52
2022-12-18T00:28:18.244Z,25.63
2022-12-18T00:33:39.519Z,26.95
2022-12-18T00:39:05.605Z,22.67
2022-12-18T00:44:26.040Z,23.73
2022-12-18T00:49:46.391Z,24.33
2022-12-18T00:55:07.831Z,23.20
2022-12-18T01:00:28.373Z,21.50
2022-12-18T01:05:49.079Z,25.75
2022-12-18T01:11:12.785Z,26.13
2022-12-18T01:16:33.237Z,23.88
2022-12-18T01:21:53.582Z,22.42
2022-12-18T01:27:14.419Z,22.88
2022-12-18T01:32:35.363Z,24.52
2022-12-18T01:37:56.860Z,25.85
2022-12-18T01:43:17.174Z,23.27
2022-12-18T01:48:39.678Z,22.45
2022-12-18T01:54:00.844Z,24.90
2022-12-18T01:59:21.398Z,23.60
2022-12-18T02:04:46.324Z,20.20
2022-12-18T02:10:26.437Z,22.17
2022-12-18T02:15:57.350Z,19.08
2022-12-18T02:21:40.087Z,24.10
2022-12-18T02:27:04.379Z,21.88
2022-12-18T02:32:37.463Z,16.75
2022-12-18T02:37:58.984Z,17.85
2022-12-18T02:43:21.847Z,18.13
2022-12-18T02:48:43.871Z,21.17
2022-12-18T02:54:22.540Z,15.43
2022-12-18T02:59:59.035Z,15.85
2022-12-18T03:05:34.166Z,16.92
2022-12-18T03:11:07.711Z,17.88
2022-12-18T03:16:32.016Z,17.50
2022-12-18T03:21:56.724Z,16.58
2022-12-18T03:27:22.142Z,16.17
2022-12-18T03:33:09.217Z,15.80
2022-12-18T03:47:26.486Z,15.35
2022-12-18T03:52:58.265Z,14.52
2022-12-18T03:58:24.339Z,17.50
2022-12-18T04:04:11.389Z,16.42
2022-12-18T04:09:36.154Z,14.65
2022-12-18T04:14:58.037Z,18.90
2022-12-18T04:20:19.291Z,14.13
2022-12-18T04:25:41.186Z,18.98
2022-12-18T04:31:05.752Z,17.98
2022-12-18T04:36:26.341Z,20.48
2022-12-18T04:41:47.581Z,19.80
2022-12-18T04:47:08.631Z,18.25
2022-12-18T04:52:29.028Z,20.63
2022-12-18T04:57:50.156Z,21.02
2022-12-18T05:03:10.651Z,20.00
2022-12-18T05:08:31.822Z,17.63
2022-12-18T05:13:52.680Z,17.40
2022-12-18T05:19:13.266Z,18.60
2022-12-18T05:24:34.156Z,20.38
2022-12-18T05:29:54.761Z,18.33
2022-12-18T05:35:17.488Z,18.55
2022-12-18T05:40:38.454Z,17.13
2022-12-18T05:46:04.983Z,19.50
2022-12-18T05:51:25.426Z,19.58
2022-12-18T05:56:48.814Z,20.88
2022-12-18T06:02:09.503Z,19.87
2022-12-18T06:07:30.159Z,20.85
2022-12-18T06:12:50.987Z,20.48
2022-12-18T06:18:11.631Z,22.25
2022-12-18T06:23:31.898Z,17.45
2022-12-18T06:28:52.510Z,19.20
2022-12-18T06:34:13.039Z,20.60
2022-12-18T06:39:33.439Z,16.88
2022-12-18T06:44:54.637Z,19.13
2022-12-18T06:50:15.781Z,19.80
2022-12-18T06:55:36.408Z,21.17
2022-12-18T07:01:04.736Z,17.35
2022-12-18T07:06:27.164Z,18.70
2022-12-18T07:11:47.688Z,16.10
2022-12-18T07:17:08.362Z,16.42
2022-12-18T07:22:29.288Z,17.95
2022-12-18T07:27:50.749Z,18.55
2022-12-18T07:33:11.391Z,17.02
2022-12-18T07:38:32.979Z,16.23
2022-12-18T07:43:53.169Z,18.05
2022-12-18T07:49:13.985Z,18.15
2022-12-18T07:54:34.847Z,19.48
2022-12-18T07:59:58.890Z,17.52
2022-12-18T08:05:27.053Z,15.38
2022-12-18T08:10:47.686Z,14.80
2022-12-18T08:16:08.568Z,16.20
2022-12-18T08:21:31.234Z,13.05
2022-12-18T08:27:20.732Z,15.60
2022-12-18T08:32:33.901Z,15.52
2022-12-18T08:37:55.328Z,15.10
2022-12-18T08:43:34.268Z,13.20
2022-12-18T08:48:57.025Z,15.00
2022-12-18T08:54:24.136Z,16.15
2022-12-18T08:59:50.408Z,13.82
2022-12-18T09:05:12.407Z,14.77
2022-12-18T09:10:33.092Z,12.20
2022-12-18T09:15:55.425Z,12.73
2022-12-18T09:21:18.391Z,13.50
2022-12-18T09:26:38.619Z,14.25
2022-12-18T09:32:00.330Z,15.48
2022-12-18T09:37:21.216Z,12.48
2022-12-18T09:42:50.025Z,12.65
2022-12-18T09:48:23.009Z,14.30
2022-12-18T09:53:51.105Z,16.17
2022-12-18T09:59:35.091Z,13.13
2022-12-18T10:04:55.631Z,12.63
2022-12-18T10:10:32.761Z,13.82
2022-12-18T10:16:28.610Z,14.32
2022-12-18T10:22:16.774Z,14.02
2022-12-18T10:27:37.242Z,12.02
2022-12-18T10:33:02.394Z,12.63
2022-12-18T10:38:29.256Z,12.02
2022-12-18T10:44:20.019Z,12.68
2022-12-18T10:49:49.185Z,11.43
2022-12-18T10:55:17.721Z,12.57
2022-12-18T11:00:38.495Z,11.98
2022-12-18T11:06:07.043Z,11.25
2022-12-18T11:11:27.967Z,9.45
2022-12-18T11:17:23.769Z,11.65
2022-12-18T11:22:34.999Z,9.40
2022-12-18T11:27:58.927Z,8.30
2022-12-18T11:33:23.102Z,6.60
2022-12-18T11:44:11.228Z,9.07
2022-12-18T11:49:36.166Z,9.05
2022-12-18T11:55:02.300Z,9.10
2022-12-18T12:00:24.043Z,7.85
2022-12-18T12:06:02.648Z,6.53
2022-12-18T12:11:28.862Z,6.05
2022-12-18T12:16:59.876Z,5.18
2022-12-18T12:22:40.980Z,7.55
2022-12-18T12:28:25.383Z,9.18
2022-12-18T12:34:02.179Z,10.10
2022-12-18T12:39:31.169Z,9.68
2022-12-18T12:44:58.330Z,9.50
2022-12-18T12:50:21.104Z,8.63
2022-12-18T12:55:43.635Z,8.88
2022-12-18T13:01:23.089Z,7.78
2022-12-18T13:06:54.108Z,8.20
2022-12-18T13:12:35.927Z,8.30
2022-12-18T13:18:28.304Z,9.23
2022-12-18T13:23:49.415Z,8.88
2022-12-18T13:29:10.114Z,7.80
2022-12-18T13:34:32.238Z,8.93
2022-12-18T13:39:53.598Z,6.90
2022-12-18T13:45:42.751Z,7.30
2022-12-18T13:51:07.235Z,7.05
2022-12-18T13:56:33.356Z,7.82
2022-12-18T14:01:59.975Z,7.32
2022-12-18T14:07:30.843Z,6.55
2022-12-18T14:13:00.871Z,6.00
2022-12-18T14:18:48.712Z,7.05
2022-12-18T14:29:31.610Z,6.55
2022-12-18T14:34:56.748Z,5.30
2022-12-18T14:40:17.454Z,5.65
2022-12-18T14:45:45.261Z,6.88
2022-12-18T14:51:07.286Z,6.03
2022-12-18T14:56:49.485Z,6.40
2022-12-18T15:02:21.339Z,6.38
2022-12-18T15:07:44.312Z,7.60
2022-12-18T15:13:04.917Z,7.38
2022-12-18T15:18:32.806Z,7.95
2022-12-18T15:23:57.381Z,7.10
2022-12-18T15:29:23.017Z,7.13
2022-12-18T15:34:43.651Z,7.53
2022-12-18T15:40:05.095Z,7.75
2022-12-18T15:45:25.628Z,7.90
2022-12-18T15:50:47.644Z,6.90
2022-12-18T15:56:34.605Z,7.70
2022-12-18T16:01:56.536Z,7.57
2022-12-18T16:07:24.885Z,8.07
2022-12-18T16:12:46.952Z,6.68
2022-12-18T16:18:08.222Z,6.97
2022-12-18T16:23:29.580Z,7.93
2022-12-18T16:28:50.159Z,7.45
2022-12-18T16:34:29.048Z,7.88
2022-12-18T16:39:49.669Z,8.77
2022-12-18T16:45:12.966Z,6.13
2022-12-18T16:50:33.501Z,6.43
2022-12-18T16:55:57.435Z,6.25
2022-12-18T17:01:17.916Z,6.10
2022-12-18T17:06:44.034Z,7.22
2022-12-18T17:12:04.823Z,6.60
2022-12-18T17:17:25.193Z,7.90
2022-12-18T17:22:45.786Z,8.52
2022-12-18T17:28:06.568Z,7.18
2022-12-18T17:33:26.950Z,4.93
2022-12-18T17:38:56.487Z,6.60
2022-12-18T17:44:17.743Z,8.05
2022-12-18T17:49:39.084Z,8.13
2022-12-18T17:54:59.436Z,7.13
2022-12-18T18:00:20.364Z,5.97
2022-12-18T18:05:40.980Z,7.15
2022-12-18T18:11:31.250Z,4.18
2022-12-18T18:16:52.575Z,6.15
2022-12-18T18:22:12.957Z,6.70
2022-12-18T18:27:38.348Z,6.75
2022-12-18T18:32:59.113Z,7.30
2022-12-18T18:38:19.624Z,7.10
2022-12-18T18:43:40.581Z,6.18
2022-12-18T18:49:01.770Z,6.65
2022-12-18T18:54:22.419Z,5.75
2022-12-18T18:59:43.286Z,5.35
2022-12-18T19:05:04.008Z,5.32
2022-12-18T19:10:24.782Z,5.63
2022-12-18T19:15:45.905Z,5.13
2022-12-18T19:21:06.608Z,6.78
2022-12-18T19:26:28.753Z,7.07
2022-12-18T19:31:49.533Z,6.90
2022-12-18T19:37:10.050Z,8.73
2022-12-18T19:42:35.272Z,8.93
2022-12-18T19:48:01.104Z,7.90
2022-12-18T19:53:24.883Z,8.63
2022-12-18T19:58:45.891Z,9.85
2022-12-18T20:04:06.833Z,8.35
2022-12-18T20:09:28.185Z,9.45
2022-12-18T20:14:49.346Z,9.43
2022-12-18T20:20:10.338Z,9.18
2022-12-18T20:25:30.704Z,10.02
2022-12-18T20:30:51.782Z,12.45
2022-12-18T20:36:19.145Z,9.27
2022-12-18T20:41:44.299Z,8.60
2022-12-18T20:54:37.443Z,10.98
2022-12-18T20:59:57.841Z,10.68
2022-12-18T21:05:18.623Z,10.85
2022-12-18T21:10:39.174Z,9.25
2022-12-18T21:16:00.120Z,9.05
2022-12-18T21:21:24.774Z,8.50
2022-12-18T21:26:48.496Z,9.52
2022-12-18T21:32:09.686Z,10.43
2022-12-18T21:37:30.029Z,8.85
2022-12-18T21:43:09.182Z,9.50
2022-12-18T21:48:31.075Z,8.25
2022-12-18T21:53:51.556Z,9.63
2022-12-18T21:59:21.838Z,10.05
2022-12-18T22:04:44.095Z,9.18
2022-12-18T22:10:05.015Z,9.38
2022-12-18T22:15:25.734Z,9.15
2022-12-18T22:20:48.063Z,7.80
2022-12-18T22:26:10.693Z,10.23
2022-12-18T22:31:31.202Z,10.13
2022-12-18T22:36:51.716Z,9.40
2022-12-18T22:42:12.013Z,7.90
2022-12-18T22:47:32.874Z,10.65
2022-12-18T22:52:53.396Z,10.23
2022-12-18T22:58:14.175Z,10.68
2022-12-18T23:03:35.242Z,10.68
2022-12-18T23:08:57.655Z,9.45
2022-12-18T23:14:18.178Z,8.60
2022-12-18T23:19:41.670Z,9.35
2022-12-18T23:25:05.175Z,10.00
2022-12-18T23:30:25.558Z,10.45
2022-12-18T23:35:45.872Z,7.43
2022-12-18T23:41:11.031Z,7.13
2022-12-18T23:46:33.909Z,9.88
2022-12-18T23:51:55.133Z,7.50
2022-12-18T23:57:15.598Z,7.93
